createdAt,value
2017-09-30T00:00:00.007Z,8.33
2017-09-30T00:02:34.571Z,8.67
2017-09-30T00:05:09.105Z,9.53
2017-09-30T00:07:43.689Z,8.87
2017-09-30T00:10:19.233Z,10.57
2017-09-30T00:12:53.687Z,9.30
2017-09-30T00:15:28.293Z,10.47
2017-09-30T00:18:02.892Z,9.47
2017-09-30T00:20:38.266Z,8.13
2017-09-30T00:23:12.929Z,8.30
2017-09-30T00:25:48.245Z,8.17
2017-09-30T00:28:22.781Z,7.87
2017-09-30T00:30:57.422Z,8.07
2017-09-30T00:33:31.874Z,8.13
2017-09-30T00:36:06.421Z,9.00
2017-09-30T00:38:40.949Z,7.80
2017-09-30T00:41:15.647Z,7.93
2017-09-30T00:43:50.318Z,8.37
2017-09-30T00:46:24.919Z,7.53
2017-09-30T00:48:59.377Z,8.30
2017-09-30T00:51:33.896Z,8.00
2017-09-30T00:54:08.345Z,6.90
2017-09-30T00:56:42.186Z,6.90
2017-09-30T00:59:16.037Z,7.10
2017-09-30T01:01:50.455Z,7.30
2017-09-30T01:04:24.900Z,6.50
2017-09-30T01:06:59.482Z,7.60
2017-09-30T01:09:33.978Z,6.80
2017-09-30T01:12:08.565Z,7.27
2017-09-30T01:14:42.982Z,6.90
2017-09-30T01:17:18.313Z,7.53
2017-09-30T01:19:52.405Z,8.20
2017-09-30T01:22:26.573Z,8.17
2017-09-30T01:25:00.673Z,8.07
2017-09-30T01:27:35.186Z,8.80
2017-09-30T01:30:15.070Z,7.70
2017-09-30T01:32:49.293Z,7.90
2017-09-30T01:35:23.386Z,8.07
2017-09-30T01:37:57.687Z,8.30
2017-09-30T01:40:31.911Z,8.70
2017-09-30T01:43:06.098Z,7.10
2017-09-30T01:45:40.713Z,6.77
2017-09-30T01:48:14.581Z,7.07
2017-09-30T01:50:48.707Z,6.77
2017-09-30T01:53:23.306Z,7.17
2017-09-30T01:55:57.901Z,6.73
2017-09-30T01:58:31.757Z,7.27
2017-09-30T02:01:05.532Z,6.03
2017-09-30T02:03:40.319Z,6.20
2017-09-30T02:06:14.757Z,6.67
2017-09-30T02:08:49.373Z,7.00
2017-09-30T02:11:23.939Z,6.30
2017-09-30T02:13:58.559Z,5.73
2017-09-30T02:16:33.155Z,6.80
2017-09-30T02:19:07.737Z,6.67
2017-09-30T02:21:42.376Z,6.70
2017-09-30T02:24:16.873Z,6.77
2017-09-30T02:26:51.485Z,6.47
2017-09-30T02:29:25.973Z,6.60
2017-09-30T02:32:00.566Z,6.30
2017-09-30T02:34:35.121Z,7.90
2017-09-30T02:37:10.471Z,7.17
2017-09-30T02:39:44.974Z,7.03
2017-09-30T02:42:19.533Z,6.57
2017-09-30T02:44:53.974Z,6.40
2017-09-30T02:47:28.576Z,7.93
2017-09-30T02:50:03.290Z,6.80
2017-09-30T02:52:42.929Z,8.13
2017-09-30T02:55:17.482Z,7.77
2017-09-30T02:57:51.925Z,7.10
2017-09-30T03:00:26.517Z,7.83
2017-09-30T03:03:01.029Z,7.10
2017-09-30T03:05:36.373Z,6.93
2017-09-30T03:08:10.877Z,7.23
2017-09-30T03:10:45.449Z,6.77
2017-09-30T03:13:20.215Z,7.13
2017-09-30T03:15:54.770Z,7.50
2017-09-30T03:18:29.429Z,7.17
2017-09-30T03:21:04.005Z,6.70
2017-09-30T03:23:38.449Z,6.80
2017-09-30T03:26:13.077Z,7.73
2017-09-30T03:28:47.517Z,6.90
2017-09-30T03:31:22.139Z,7.73
2017-09-30T03:33:57.105Z,6.40
2017-09-30T03:36:31.766Z,6.83
2017-09-30T03:39:07.045Z,7.20
2017-09-30T03:41:41.750Z,6.60
2017-09-30T03:44:16.428Z,7.10
2017-09-30T03:46:50.950Z,7.10
2017-09-30T03:49:25.539Z,7.97
2017-09-30T03:52:00.869Z,7.60
2017-09-30T03:54:35.346Z,7.43
2017-09-30T03:57:09.917Z,6.93
2017-09-30T03:59:44.482Z,7.97
2017-09-30T04:02:19.890Z,6.90
2017-09-30T04:04:54.477Z,7.07
2017-09-30T04:07:29.040Z,8.13
2017-09-30T04:10:13.343Z,9.17
2017-09-30T04:12:47.877Z,8.90
2017-09-30T04:15:22.450Z,9.43
2017-09-30T04:17:57.035Z,7.20
2017-09-30T04:20:31.551Z,8.33
2017-09-30T04:23:06.109Z,7.73
2017-09-30T04:25:40.665Z,8.80
2017-09-30T04:28:16.055Z,7.97
2017-09-30T04:30:50.675Z,7.63
2017-09-30T04:33:25.242Z,8.20
2017-09-30T04:35:59.761Z,7.80
2017-09-30T04:38:34.217Z,8.37
2017-09-30T04:41:08.754Z,8.03
2017-09-30T04:43:43.313Z,7.90
2017-09-30T04:46:17.868Z,8.70
2017-09-30T04:48:52.401Z,8.27
2017-09-30T04:51:26.619Z,8.40
2017-09-30T04:54:01.065Z,8.73
2017-09-30T04:56:35.826Z,9.27
2017-09-30T04:59:10.250Z,9.33
2017-09-30T05:01:44.858Z,9.00
2017-09-30T05:04:19.490Z,9.07
2017-09-30T05:06:54.017Z,8.50
2017-09-30T05:09:28.616Z,8.70
2017-09-30T05:12:02.955Z,8.63
2017-09-30T05:14:37.531Z,9.27
2017-09-30T05:17:12.781Z,9.67
2017-09-30T05:19:47.538Z,9.60
2017-09-30T05:22:22.145Z,8.77
2017-09-30T05:24:56.739Z,9.63
2017-09-30T05:27:32.069Z,9.17
2017-09-30T05:30:15.293Z,8.53
2017-09-30T05:32:49.854Z,8.13
2017-09-30T05:35:24.510Z,9.20
2017-09-30T05:37:59.050Z,9.47
2017-09-30T05:40:33.592Z,9.33
2017-09-30T05:43:08.177Z,9.43
2017-09-30T05:45:42.577Z,9.77
2017-09-30T05:48:17.082Z,8.23
2017-09-30T05:50:51.617Z,9.00
2017-09-30T05:53:26.161Z,11.40
2017-09-30T05:56:00.850Z,9.87
2017-09-30T05:58:35.289Z,8.67
2017-09-30T06:01:09.816Z,8.60
2017-09-30T06:03:44.366Z,8.73
2017-09-30T06:06:18.921Z,8.67
2017-09-30T06:08:53.569Z,9.90
2017-09-30T06:11:28.114Z,8.93
2017-09-30T06:14:02.721Z,8.60
2017-09-30T06:16:37.277Z,10.03
2017-09-30T06:19:11.937Z,8.00
2017-09-30T06:21:46.529Z,8.77
2017-09-30T06:24:21.105Z,8.93
2017-09-30T06:26:55.734Z,7.40
2017-09-30T06:29:30.309Z,8.13
2017-09-30T06:32:05.007Z,7.50
2017-09-30T06:34:39.745Z,6.90
2017-09-30T06:37:14.261Z,7.53
2017-09-30T06:39:49.837Z,8.50
2017-09-30T06:42:24.539Z,6.80
2017-09-30T06:44:59.090Z,8.00
2017-09-30T06:47:33.643Z,6.80
2017-09-30T06:50:16.061Z,7.00
2017-09-30T06:52:50.737Z,7.80
2017-09-30T06:55:25.354Z,6.90
2017-09-30T06:57:59.845Z,6.60
2017-09-30T07:00:34.393Z,6.97
2017-09-30T07:03:08.964Z,6.97
2017-09-30T07:05:43.493Z,6.50
2017-09-30T07:08:17.965Z,6.77
2017-09-30T07:10:52.605Z,6.23
2017-09-30T07:13:27.266Z,6.33
2017-09-30T07:16:01.782Z,6.80
2017-09-30T07:18:36.269Z,7.07
2017-09-30T07:21:10.831Z,5.73
2017-09-30T07:23:45.393Z,6.10
2017-09-30T07:26:19.950Z,7.07
2017-09-30T07:28:55.257Z,6.20
2017-09-30T07:31:29.959Z,7.00
2017-09-30T07:34:05.237Z,5.60
2017-09-30T07:36:39.765Z,5.50
2017-09-30T07:39:14.255Z,5.10
2017-09-30T07:41:48.817Z,4.50
2017-09-30T07:44:23.307Z,4.97
2017-09-30T07:46:57.858Z,4.70
2017-09-30T07:49:32.346Z,5.30
2017-09-30T07:52:06.913Z,4.90
2017-09-30T07:54:41.530Z,5.30
2017-09-30T07:57:16.152Z,5.33
2017-09-30T07:59:50.805Z,6.27
2017-09-30T08:02:25.402Z,3.90
2017-09-30T08:04:59.906Z,5.00
2017-09-30T08:07:34.442Z,5.00
2017-09-30T08:10:15.001Z,5.30
2017-09-30T08:12:49.592Z,4.63
2017-09-30T08:15:24.126Z,5.70
2017-09-30T08:17:59.485Z,5.80
2017-09-30T08:20:33.918Z,5.73
2017-09-30T08:23:08.782Z,4.70
2017-09-30T08:25:43.400Z,5.00
2017-09-30T08:28:18.033Z,4.00
2017-09-30T08:30:52.577Z,4.73
2017-09-30T08:33:27.120Z,4.13
2017-09-30T08:36:01.524Z,4.63
2017-09-30T08:38:35.964Z,4.90
2017-09-30T08:41:10.497Z,4.50
2017-09-30T08:43:45.161Z,4.57
2017-09-30T08:46:19.681Z,5.03
2017-09-30T08:48:54.356Z,5.23
2017-09-30T08:51:28.870Z,4.30
2017-09-30T08:54:03.310Z,5.20
2017-09-30T08:56:37.745Z,5.40
2017-09-30T08:59:12.459Z,6.20
2017-09-30T09:01:47.279Z,4.60
2017-09-30T09:04:21.709Z,4.47
2017-09-30T09:06:56.277Z,4.83
2017-09-30T09:09:30.729Z,4.63
2017-09-30T09:12:05.314Z,5.07
2017-09-30T09:14:39.969Z,4.73
2017-09-30T09:17:14.521Z,4.70
2017-09-30T09:19:49.057Z,5.30
2017-09-30T09:22:23.581Z,5.30
2017-09-30T09:24:58.022Z,4.57
2017-09-30T09:27:32.574Z,4.80
2017-09-30T09:30:14.739Z,4.77
2017-09-30T09:32:49.285Z,4.67
2017-09-30T09:35:23.837Z,5.00
2017-09-30T09:37:58.447Z,4.13
2017-09-30T09:40:32.785Z,4.63
2017-09-30T09:43:07.433Z,4.23
2017-09-30T09:45:42.075Z,4.73
2017-09-30T09:48:16.654Z,4.83
2017-09-30T09:50:51.382Z,4.40
2017-09-30T09:53:26.697Z,4.20
2017-09-30T09:56:01.376Z,5.50
2017-09-30T09:58:36.128Z,4.60
2017-09-30T10:01:10.643Z,4.20
2017-09-30T10:03:45.089Z,4.33
2017-09-30T10:06:19.682Z,4.70
2017-09-30T10:08:54.197Z,4.53
2017-09-30T10:11:28.513Z,4.60
2017-09-30T10:14:03.797Z,4.17
2017-09-30T10:16:38.553Z,4.37
2017-09-30T10:19:13.030Z,4.40
2017-09-30T10:21:48.298Z,5.03
2017-09-30T10:24:22.803Z,3.93
2017-09-30T10:26:57.412Z,4.80
2017-09-30T10:29:31.956Z,5.07
2017-09-30T10:32:06.609Z,4.67
2017-09-30T10:34:41.078Z,5.53
2017-09-30T10:37:15.612Z,4.97
2017-09-30T10:39:50.209Z,5.07
2017-09-30T10:42:25.013Z,5.23
2017-09-30T10:44:59.837Z,4.27
2017-09-30T10:47:34.311Z,5.83
2017-09-30T10:50:15.858Z,5.57
2017-09-30T10:52:50.461Z,4.40
2017-09-30T10:55:25.089Z,5.50
2017-09-30T10:57:59.725Z,5.60
2017-09-30T11:00:34.022Z,4.60
2017-09-30T11:03:08.490Z,4.93
2017-09-30T11:05:43.107Z,5.07
2017-09-30T11:08:18.325Z,5.03
2017-09-30T11:10:52.897Z,6.10
2017-09-30T11:13:27.306Z,4.93
2017-09-30T11:16:01.926Z,4.60
2017-09-30T11:18:36.497Z,5.17
2017-09-30T11:21:11.049Z,5.13
2017-09-30T11:23:45.549Z,4.93
2017-09-30T11:26:20.078Z,5.30
2017-09-30T11:28:54.570Z,4.40
2017-09-30T11:31:29.170Z,5.93
2017-09-30T11:34:03.605Z,4.20
2017-09-30T11:36:38.364Z,5.13
2017-09-30T11:39:12.925Z,4.73
2017-09-30T11:41:47.502Z,4.17
2017-09-30T11:44:21.974Z,4.47
2017-09-30T11:46:56.574Z,5.03
2017-09-30T11:49:31.174Z,5.43
2017-09-30T11:52:05.833Z,4.53
2017-09-30T11:54:40.485Z,4.50
2017-09-30T11:57:15.874Z,4.57
2017-09-30T11:59:50.433Z,4.87
2017-09-30T12:02:25.010Z,4.97
2017-09-30T12:04:59.507Z,5.40
2017-09-30T12:07:34.116Z,4.07
2017-09-30T12:10:17.973Z,4.53
2017-09-30T12:12:52.630Z,4.23
2017-09-30T12:15:27.126Z,4.37
2017-09-30T12:18:01.783Z,3.93
2017-09-30T12:20:36.361Z,4.80
2017-09-30T12:23:11.013Z,3.93
2017-09-30T12:25:45.666Z,4.60
2017-09-30T12:28:20.103Z,5.63
2017-09-30T12:30:54.581Z,4.60
2017-09-30T12:33:29.201Z,4.77
2017-09-30T12:36:03.722Z,3.90
2017-09-30T12:38:38.349Z,5.07
2017-09-30T12:41:12.957Z,4.23
2017-09-30T12:43:47.617Z,5.80
2017-09-30T12:46:22.390Z,5.30
2017-09-30T12:48:56.717Z,5.93
2017-09-30T12:51:31.206Z,5.23
2017-09-30T12:54:05.643Z,5.57
2017-09-30T12:56:40.261Z,6.20
2017-09-30T12:59:14.748Z,5.80
2017-09-30T13:01:49.323Z,5.30
2017-09-30T13:04:23.822Z,6.33
2017-09-30T13:06:58.410Z,6.80
2017-09-30T13:09:33.088Z,5.27
2017-09-30T13:12:07.545Z,5.20
2017-09-30T13:14:42.021Z,5.10
2017-09-30T13:17:16.613Z,5.83
2017-09-30T13:19:51.074Z,5.67
2017-09-30T13:22:25.616Z,6.67
2017-09-30T13:25:00.272Z,5.43
2017-09-30T13:27:34.814Z,5.40
2017-09-30T13:30:15.959Z,5.87
2017-09-30T13:32:50.729Z,6.17
2017-09-30T13:35:25.422Z,5.90
2017-09-30T13:37:59.990Z,5.73
2017-09-30T13:40:34.561Z,5.70
2017-09-30T13:43:09.121Z,5.30
2017-09-30T13:45:43.705Z,5.73
2017-09-30T13:48:18.557Z,6.70
2017-09-30T13:50:53.163Z,5.23
2017-09-30T13:53:27.727Z,6.10
2017-09-30T13:56:02.317Z,5.43
2017-09-30T13:58:36.791Z,5.53
2017-09-30T14:01:11.585Z,6.70
2017-09-30T14:03:46.311Z,6.17
2017-09-30T14:06:21.657Z,6.30
2017-09-30T14:08:56.258Z,6.03
2017-09-30T14:11:30.821Z,6.10
2017-09-30T14:14:05.916Z,5.70
2017-09-30T14:16:40.645Z,5.00
2017-09-30T14:19:15.157Z,5.60
2017-09-30T14:21:49.814Z,4.97
2017-09-30T14:24:24.403Z,6.00
2017-09-30T14:26:58.970Z,6.17
2017-09-30T14:29:33.434Z,7.50
2017-09-30T14:32:07.981Z,6.90
2017-09-30T14:34:42.528Z,5.73
2017-09-30T14:37:17.106Z,6.70
2017-09-30T14:39:51.722Z,6.80
2017-09-30T14:42:26.336Z,6.20
2017-09-30T14:45:01.013Z,6.50
2017-09-30T14:47:35.631Z,5.47
2017-09-30T14:50:16.353Z,5.23
2017-09-30T14:52:50.970Z,6.43
2017-09-30T14:55:25.601Z,5.70
2017-09-30T14:58:00.060Z,5.97
2017-09-30T15:00:34.685Z,5.73
2017-09-30T15:03:09.547Z,5.83
2017-09-30T15:05:44.006Z,5.80
2017-09-30T15:08:18.545Z,4.60
2017-09-30T15:10:53.089Z,6.00
2017-09-30T15:13:27.514Z,6.13
2017-09-30T15:16:02.089Z,5.87
2017-09-30T15:18:37.514Z,5.53
2017-09-30T15:21:12.150Z,6.47
2017-09-30T15:23:46.782Z,6.00
2017-09-30T15:26:21.395Z,6.00
2017-09-30T15:28:55.855Z,5.80
2017-09-30T15:31:30.370Z,5.53
2017-09-30T15:34:04.873Z,5.40
2017-09-30T15:36:39.475Z,5.60
2017-09-30T15:39:14.097Z,6.00
2017-09-30T15:41:48.704Z,5.57
2017-09-30T15:44:23.263Z,6.17
2017-09-30T15:46:58.518Z,5.50
2017-09-30T15:49:33.089Z,5.33
2017-09-30T15:52:07.626Z,5.57
2017-09-30T15:54:42.193Z,6.20
2017-09-30T15:57:17.863Z,5.70
2017-09-30T15:59:52.486Z,5.93
2017-09-30T16:02:26.981Z,5.60
2017-09-30T16:05:01.585Z,5.10
2017-09-30T16:07:36.181Z,5.43
2017-09-30T16:10:15.110Z,5.87
2017-09-30T16:12:49.666Z,6.00
2017-09-30T16:15:24.275Z,6.50
2017-09-30T16:17:58.893Z,6.13
2017-09-30T16:20:33.418Z,5.70
2017-09-30T16:23:08.009Z,5.87
2017-09-30T16:25:42.582Z,6.13
2017-09-30T16:28:17.054Z,7.07
2017-09-30T16:30:51.609Z,5.10
2017-09-30T16:33:26.174Z,7.23
2017-09-30T16:36:00.730Z,6.70
2017-09-30T16:38:35.376Z,7.63
2017-09-30T16:41:09.877Z,6.63
2017-09-30T16:43:44.438Z,6.90
2017-09-30T16:46:19.196Z,5.93
2017-09-30T16:48:54.669Z,6.37
2017-09-30T16:51:29.213Z,6.50
2017-09-30T16:54:03.882Z,7.70
2017-09-30T16:56:38.501Z,7.03
2017-09-30T16:59:13.157Z,6.13
2017-09-30T17:01:47.722Z,5.60
2017-09-30T17:04:22.237Z,6.50
2017-09-30T17:06:56.833Z,6.30
2017-09-30T17:09:31.438Z,6.03
2017-09-30T17:12:06.113Z,5.43
2017-09-30T17:14:40.541Z,7.37
2017-09-30T17:17:15.306Z,7.63
2017-09-30T17:19:49.762Z,6.73
2017-09-30T17:22:24.423Z,8.53
2017-09-30T17:24:58.937Z,7.80
2017-09-30T17:27:33.593Z,7.53
2017-09-30T17:30:16.532Z,8.07
2017-09-30T17:32:51.805Z,7.07
2017-09-30T17:35:26.241Z,7.70
2017-09-30T17:38:00.805Z,7.10
2017-09-30T17:40:35.314Z,6.80
2017-09-30T17:43:09.844Z,7.23
2017-09-30T17:45:44.338Z,8.00
2017-09-30T17:48:19.025Z,7.00
2017-09-30T17:50:53.630Z,6.83
2017-09-30T17:53:28.313Z,6.87
2017-09-30T17:56:02.825Z,7.27
2017-09-30T17:58:37.451Z,6.63
2017-09-30T18:01:12.121Z,7.63
2017-09-30T18:03:46.714Z,8.73
2017-09-30T18:06:21.308Z,10.60
2017-09-30T18:08:56.107Z,7.87
2017-09-30T18:11:32.445Z,8.03
2017-09-30T18:14:06.910Z,8.27
2017-09-30T18:16:41.572Z,8.50
2017-09-30T18:19:16.226Z,8.20
2017-09-30T18:21:51.070Z,8.57
2017-09-30T18:24:25.678Z,7.80
2017-09-30T18:27:00.282Z,8.00
2017-09-30T18:29:34.731Z,8.73
2017-09-30T18:32:09.241Z,8.57
2017-09-30T18:34:43.969Z,9.37
2017-09-30T18:37:19.265Z,8.80
2017-09-30T18:39:53.863Z,8.87
2017-09-30T18:42:28.398Z,8.63
2017-09-30T18:47:47.424Z,8.60
2017-09-30T18:50:22.030Z,9.90
2017-09-30T18:52:56.589Z,9.40
2017-09-30T18:55:31.161Z,8.93
2017-09-30T18:58:05.598Z,8.67
2017-09-30T19:00:40.170Z,9.00
2017-09-30T19:03:14.741Z,8.97
2017-09-30T19:05:49.317Z,8.43
2017-09-30T19:08:24.734Z,9.57
2017-09-30T19:10:59.305Z,8.50
2017-09-30T19:13:33.974Z,9.90
2017-09-30T19:16:08.493Z,8.70
2017-09-30T19:18:42.953Z,8.30
2017-09-30T19:21:17.490Z,8.60
2017-09-30T19:23:52.161Z,9.13
2017-09-30T19:26:26.733Z,9.07
2017-09-30T19:29:01.241Z,9.20
2017-09-30T19:31:36.025Z,8.00
2017-09-30T19:34:11.301Z,8.50
2017-09-30T19:36:45.788Z,8.90
2017-09-30T19:39:20.383Z,8.23
2017-09-30T19:41:54.948Z,9.30
2017-09-30T19:44:29.270Z,9.17
2017-09-30T19:47:03.831Z,7.60
2017-09-30T19:49:38.417Z,8.33
2017-09-30T19:52:13.073Z,7.70
2017-09-30T19:54:47.682Z,7.57
2017-09-30T19:57:22.180Z,7.57
2017-09-30T19:59:57.478Z,8.17
2017-09-30T20:02:32.898Z,8.57
2017-09-30T20:05:16.777Z,8.03
2017-09-30T20:07:52.079Z,7.70
2017-09-30T20:10:26.733Z,8.53
2017-09-30T20:13:01.218Z,7.20
2017-09-30T20:15:35.762Z,7.37
2017-09-30T20:18:10.362Z,7.47
2017-09-30T20:20:44.919Z,7.97
2017-09-30T20:23:19.390Z,7.67
2017-09-30T20:25:53.889Z,7.80
2017-09-30T20:28:28.460Z,9.10
2017-09-30T20:31:03.081Z,8.70
2017-09-30T20:33:37.659Z,7.73
2017-09-30T20:36:13.081Z,8.40
2017-09-30T20:38:47.508Z,8.30
2017-09-30T20:41:22.142Z,8.07
2017-09-30T20:43:56.765Z,8.47
2017-09-30T20:46:31.394Z,8.10
2017-09-30T20:49:05.902Z,8.07
2017-09-30T20:51:40.571Z,7.53
2017-09-30T20:54:15.142Z,8.47
2017-09-30T20:56:49.698Z,6.93
2017-09-30T20:59:24.291Z,7.37
2017-09-30T21:01:59.728Z,7.33
2017-09-30T21:04:34.287Z,7.77
2017-09-30T21:07:09.040Z,6.60
2017-09-30T21:09:43.722Z,6.80
2017-09-30T21:12:18.244Z,7.00
2017-09-30T21:14:52.726Z,6.37
2017-09-30T21:17:27.286Z,7.30
2017-09-30T21:20:01.846Z,6.20
2017-09-30T21:22:36.496Z,6.10
2017-09-30T21:25:17.483Z,6.27
2017-09-30T21:27:51.944Z,7.63
2017-09-30T21:30:26.494Z,7.97
2017-09-30T21:33:01.119Z,7.07
2017-09-30T21:35:35.719Z,6.93
2017-09-30T21:38:10.354Z,6.10
2017-09-30T21:40:44.984Z,6.73
2017-09-30T21:43:19.611Z,7.10
2017-09-30T21:45:54.262Z,6.60
2017-09-30T21:48:28.977Z,6.60
2017-09-30T21:51:03.468Z,6.00
2017-09-30T21:53:37.918Z,7.03
2017-09-30T21:56:12.574Z,7.07
2017-09-30T21:58:47.068Z,8.30
2017-09-30T22:01:21.298Z,7.70
2017-09-30T22:03:56.054Z,8.37
2017-09-30T22:06:30.638Z,7.57
2017-09-30T22:09:04.461Z,7.40
2017-09-30T22:11:39.093Z,6.77
2017-09-30T22:14:13.814Z,7.30
2017-09-30T22:16:48.389Z,8.60
2017-09-30T22:19:22.969Z,7.73
2017-09-30T22:21:57.563Z,7.63
2017-09-30T22:24:32.931Z,9.80
2017-09-30T22:27:07.610Z,8.17
2017-09-30T22:29:42.281Z,8.23
2017-09-30T22:32:16.871Z,9.40
2017-09-30T22:34:52.235Z,9.57
2017-09-30T22:37:27.674Z,8.27
2017-09-30T22:42:47.409Z,9.00
2017-09-30T22:45:21.903Z,10.27
2017-09-30T22:47:57.114Z,8.10
2017-09-30T22:50:31.612Z,8.73
2017-09-30T22:53:06.519Z,8.90
2017-09-30T22:55:41.112Z,9.10
2017-09-30T22:58:16.001Z,9.30
2017-09-30T23:00:50.621Z,9.60
2017-09-30T23:03:25.096Z,8.87
2017-09-30T23:05:59.595Z,10.70
2017-09-30T23:08:34.134Z,10.87
2017-09-30T23:11:08.724Z,10.47
2017-09-30T23:13:43.318Z,9.67
2017-09-30T23:16:17.898Z,8.93
2017-09-30T23:18:52.455Z,8.50
2017-09-30T23:21:26.994Z,9.37
2017-09-30T23:24:01.635Z,9.17
2017-09-30T23:26:36.154Z,10.10
2017-09-30T23:29:10.651Z,10.10
2017-09-30T23:31:47.594Z,9.00
2017-09-30T23:34:22.638Z,9.07
2017-09-30T23:36:58.001Z,10.40
2017-09-30T23:39:32.643Z,10.63
2017-09-30T23:42:07.114Z,10.60
2017-09-30T23:44:41.799Z,10.40
2017-09-30T23:47:16.403Z,10.57
2017-09-30T23:49:51.822Z,10.50
2017-09-30T23:52:26.406Z,9.53
2017-09-30T23:55:01.213Z,10.07
2017-09-30T23:57:35.650Z,10.60
